Dry Branch, Georgia
Current Conditions -  °F | °C
As of 6:53 PM on Saturday 25 Oct 2014 (Local Time) from KMCN Reporting Station
Clear Clear  
Wind Chill: 67°   Ceiling: Unl
Heat Index: 67°   Visibility: 10mi
Dew Point: 49°   Wind: 0mph
Humidity: 52%   Direction: NA
Pressure: 29.99"   Gusts: NA
Location:  32.8°N, 83.5°W
Report Text: KMCN 252253Z 00000KT 10SM CLR 19/09 A2999 RMK AO2 SLP155 T01940094
Loading
Personal Weather Stations






























Interactive Weather Map
Tropical Storm Tracking
New forecast layout! Learn more

10-Day Weather Forecast

Advertisements
Track Severe Weather on mobile